Time;durP1;ratioP1;P1;durP2;ratioP2;P2;SDS_P1;SDS_P2;PMS_P1;PMS_P2;Temp;Humidity;BMP_temperature;BMP_pressure;BME280_temperature;BME280_humidity;BME280_pressure;Samples;Min_cycle;Max_cycle;Signal;HPM_P1;HPM_P2
2022/06/27 00:00:35;;;;;;;;;;;;;;;;;;5136412;27;1167;-76
2022/06/27 00:03:01;;;;;;;;;;;;;;;;;;5130644;27;1159;-76
2022/06/27 00:05:26;;;;;;;;;;;;;;;;;;5131767;27;1297;-76
2022/06/27 00:07:51;;;;;;;;;;;;;;;;;;5115252;27;1881;-76
2022/06/27 00:10:16;;;;;;;;;;;;;;;;;;5099828;27;1202;-76
2022/06/27 00:12:42;;;;;;;;;;;;;;;;;;5130583;27;1226;-76
2022/06/27 00:15:26;;;;;;;;;;;;;;;;;;5095245;27;1261;-76
2022/06/27 00:17:52;;;;;;;;;;;;;;;;;;5125906;27;1174;-76
2022/06/27 00:20:17;;;;;;;;;;;;;;;;;;5115164;27;1184;-76
2022/06/27 00:22:42;;;;;;;;;;;;;;;;;;5119676;27;1225;-76
2022/06/27 00:25:11;;;;;;;;;;;;;;;;;;5110460;27;1160;-76
2022/06/27 00:27:37;;;;;;;;;;;;;;;;;;5115707;27;1953;-76
2022/06/27 00:30:03;;;;;;;;;;;;;;;;;;5108555;27;1268;-77
2022/06/27 00:32:29;;;;;;;;;;;;;;;;;;5119365;27;1210;-77
2022/06/27 00:34:54;;;;;;;;;;;;;;;;;;5129795;27;1242;-76
2022/06/27 00:37:19;;;;;;;;;;;;;;;;;;5144723;27;1210;-76
2022/06/27 00:39:45;;;;;;;;;;;;;;;;;;5125947;27;1170;-76
2022/06/27 00:42:13;;;;;;;;;;;;;;;;;;5130013;27;1150;-76
2022/06/27 00:44:40;;;;;;;;;;;;;;;;;;5110172;27;1369;-76
2022/06/27 00:47:08;;;;;;;;;;;;;;;;;;5145745;27;1959;-76
2022/06/27 00:49:34;;;;;;;;;;;;;;;;;;5110731;27;1234;-76
2022/06/27 00:51:59;;;;;;;;;;;;;;;;;;5110157;27;1317;-76
2022/06/27 00:54:25;;;;;;;;;;;;;;;;;;5108224;27;1229;-76
2022/06/27 00:56:51;;;;;;;;;;;;;;;;;;5128218;27;1221;-76
2022/06/27 00:59:17;;;;;;;;;;;;;;;;;;5136949;27;1181;-76
2022/06/27 01:01:42;;;;;;;;;;;;;;;;;;5088522;27;1195;-76
2022/06/27 01:04:13;;;;;;;;;;;;;;;;;;5105906;27;1651;-75
2022/06/27 01:06:39;;;;;;;;;;;;;;;;;;5130750;27;1981;-76
2022/06/27 01:09:04;;;;;;;;;;;;;;;;;;5123180;27;1198;-76
2022/06/27 01:11:29;;;;;;;;;;;;;;;;;;5130995;27;1158;-75
2022/06/27 01:14:05;;;;;;;;;;;;;;;;;;5128438;27;1167;-76
2022/06/27 01:16:37;;;;;;;;;;;;;;;;;;5127321;27;1141;-76
2022/06/27 01:19:03;;;;;;;;;;;;;;;;;;5107725;27;1243;-76
2022/06/27 01:21:31;;;;;;;;;;;;;;;;;;5119189;27;1230;-76
2022/06/27 01:23:59;;;;;;;;;;;;;;;;;;5111406;27;1367;-76
2022/06/27 01:26:24;;;;;;;;;;;;;;;;;;5140527;27;1166;-76
2022/06/27 01:28:49;;;;;;;;;;;;;;;;;;5131410;27;1992;-76
2022/06/27 01:31:16;;;;;;;;;;;;;;;;;;5126284;27;1202;-75
2022/06/27 01:33:42;;;;;;;;;;;;;;;;;;5121294;27;1614;-76
2022/06/27 01:38:52;;;;;;;;;;;;;;;;;;5128620;27;1158;-76
2022/06/27 01:41:18;;;;;;;;;;;;;;;;;;5117007;27;1187;-76
2022/06/27 01:43:44;;;;;;;;;;;;;;;;;;5129413;27;1360;-76
2022/06/27 01:46:10;;;;;;;;;;;;;;;;;;5108823;27;1300;-76
2022/06/27 01:48:35;;;;;;;;;;;;;;;;;;5120882;27;1936;-76
2022/06/27 01:51:01;;;;;;;;;;;;;;;;;;5137404;27;1364;-75
2022/06/27 01:53:28;;;;;;;;;;;;;;;;;;5110918;27;1241;-76
2022/06/27 01:55:53;;;;;;;;;;;;;;;;;;5127028;27;1301;-76
2022/06/27 01:58:19;;;;;;;;;;;;;;;;;;5112714;27;1198;-76
2022/06/27 02:00:44;;;;;;;;;;;;;;;;;;5131717;27;1178;-76
2022/06/27 02:03:10;;;;;;;;;;;;;;;;;;5140039;27;1175;-76
2022/06/27 02:05:35;;;;;;;;;;;;;;;;;;5116321;27;1288;-76
2022/06/27 02:08:02;;;;;;;;;;;;;;;;;;5128089;27;1892;-76
2022/06/27 02:10:27;;;;;;;;;;;;;;;;;;5129309;27;1143;-76
2022/06/27 02:12:53;;;;;;;;;;;;;;;;;;5108287;27;1201;-76
2022/06/27 02:15:21;;;;;;;;;;;;;;;;;;5122979;27;1218;-76
2022/06/27 02:17:47;;;;;;;;;;;;;;;;;;5124511;27;1159;-76
2022/06/27 02:20:13;;;;;;;;;;;;;;;;;;5096112;27;1278;-76
2022/06/27 02:22:39;;;;;;;;;;;;;;;;;;5086911;27;1199;-76
2022/06/27 02:25:04;;;;;;;;;;;;;;;;;;5110164;27;1308;-76
2022/06/27 02:27:31;;;;;;;;;;;;;;;;;;5125956;27;1902;-76
2022/06/27 02:29:56;;;;;;;;;;;;;;;;;;5117227;27;1398;-76
2022/06/27 02:32:21;;;;;;;;;;;;;;;;;;5122689;27;1234;-76
2022/06/27 02:34:49;;;;;;;;;;;;;;;;;;5109332;27;1211;-77
2022/06/27 02:37:14;;;;;;;;;;;;;;;;;;5147275;27;1127;-76
2022/06/27 02:39:40;;;;;;;;;;;;;;;;;;5145371;27;1139;-76
2022/06/27 02:42:09;;;;;;;;;;;;;;;;;;5124545;27;1303;-76
2022/06/27 02:44:35;;;;;;;;;;;;;;;;;;5126175;27;1206;-76
2022/06/27 02:47:01;;;;;;;;;;;;;;;;;;5113120;27;2015;-75
2022/06/27 02:49:26;;;;;;;;;;;;;;;;;;5126414;27;1159;-75
2022/06/27 02:52:08;;;;;;;;;;;;;;;;;;5088075;27;1266;-75
2022/06/27 02:54:39;;;;;;;;;;;;;;;;;;5139431;27;1035;-75
2022/06/27 02:57:10;;;;;;;;;;;;;;;;;;5124465;27;1241;-75
2022/06/27 02:59:37;;;;;;;;;;;;;;;;;;5118890;27;1260;-75
2022/06/27 03:02:05;;;;;;;;;;;;;;;;;;5113628;27;1247;-76
2022/06/27 03:04:30;;;;;;;;;;;;;;;;;;5128361;27;1198;-76
2022/06/27 03:06:55;;;;;;;;;;;;;;;;;;5124513;27;1959;-76
2022/06/27 03:09:26;;;;;;;;;;;;;;;;;;5124571;27;1352;-76
2022/06/27 03:11:51;;;;;;;;;;;;;;;;;;5109528;27;1143;-76
2022/06/27 03:14:16;;;;;;;;;;;;;;;;;;5127223;27;1182;-76
2022/06/27 03:16:42;;;;;;;;;;;;;;;;;;5111622;27;1178;-76
2022/06/27 03:19:07;;;;;;;;;;;;;;;;;;5099594;27;1313;-76
2022/06/27 03:21:33;;;;;;;;;;;;;;;;;;5119995;27;1079;-76
2022/06/27 03:23:58;;;;;;;;;;;;;;;;;;5113059;27;1217;-76
2022/06/27 03:26:34;;;;;;;;;;;;;;;;;;5100195;27;1304;-76
2022/06/27 03:29:09;;;;;;;;;;;;;;;;;;5133061;27;1190;-76
2022/06/27 03:31:37;;;;;;;;;;;;;;;;;;5138545;27;1173;-76
2022/06/27 03:34:03;;;;;;;;;;;;;;;;;;5114428;27;1185;-77
2022/06/27 03:36:29;;;;;;;;;;;;;;;;;;5115870;27;1277;-76
2022/06/27 03:38:54;;;;;;;;;;;;;;;;;;5124752;27;1181;-76
2022/06/27 03:41:20;;;;;;;;;;;;;;;;;;5110741;27;1249;-76
2022/06/27 03:43:45;;;;;;;;;;;;;;;;;;5108277;27;1202;-75
2022/06/27 03:46:11;;;;;;;;;;;;;;;;;;5127275;27;1289;-75
2022/06/27 03:51:19;;;;;;;;;;;;;;;;;;5117753;27;1090;-76
2022/06/27 03:53:45;;;;;;;;;;;;;;;;;;5124112;27;1215;-76
2022/06/27 03:56:10;;;;;;;;;;;;;;;;;;5130337;27;1187;-76
2022/06/27 03:58:35;;;;;;;;;;;;;;;;;;5128192;27;1160;-76
2022/06/27 04:01:01;;;;;;;;;;;;;;;;;;5124969;27;1199;-76
2022/06/27 04:03:36;;;;;;;;;;;;;;;;;;5137352;27;1163;-76
2022/06/27 04:06:01;;;;;;;;;;;;;;;;;;5138301;27;1123;-76
2022/06/27 04:08:34;;;;;;;;;;;;;;;;;;5108397;27;1941;-76
2022/06/27 04:10:59;;;;;;;;;;;;;;;;;;5107607;27;1175;-76
2022/06/27 04:13:24;;;;;;;;;;;;;;;;;;5116037;27;1198;-76
2022/06/27 04:15:49;;;;;;;;;;;;;;;;;;5121816;27;1128;-76
2022/06/27 04:18:15;;;;;;;;;;;;;;;;;;5129996;27;1210;-76
2022/06/27 04:20:42;;;;;;;;;;;;;;;;;;5149412;27;1146;-76
2022/06/27 04:23:07;;;;;;;;;;;;;;;;;;5147092;27;1155;-76
2022/06/27 04:25:33;;;;;;;;;;;;;;;;;;5109476;27;1165;-76
2022/06/27 04:27:58;;;;;;;;;;;;;;;;;;5129234;27;1893;-76
2022/06/27 04:30:25;;;;;;;;;;;;;;;;;;5120875;27;1190;-76
2022/06/27 04:32:51;;;;;;;;;;;;;;;;;;5125400;27;1116;-76
2022/06/27 04:35:16;;;;;;;;;;;;;;;;;;5134186;27;1199;-76
2022/06/27 04:37:43;;;;;;;;;;;;;;;;;;5119124;27;1351;-76
2022/06/27 04:40:13;;;;;;;;;;;;;;;;;;5116107;27;1131;-76
2022/06/27 04:42:39;;;;;;;;;;;;;;;;;;5143305;27;1014;-77
2022/06/27 04:45:11;;;;;;;;;;;;;;;;;;5140265;27;1162;-76
2022/06/27 04:47:43;;;;;;;;;;;;;;;;;;5116913;27;1930;-76
2022/06/27 04:50:17;;;;;;;;;;;;;;;;;;5117116;27;1351;-76
2022/06/27 04:52:43;;;;;;;;;;;;;;;;;;5122242;27;1194;-76
2022/06/27 04:55:09;;;;;;;;;;;;;;;;;;5125106;27;1164;-76
2022/06/27 04:57:45;;;;;;;;;;;;;;;;;;5123953;27;1236;-76
2022/06/27 05:00:19;;;;;;;;;;;;;;;;;;5119609;27;1231;-76
2022/06/27 05:02:45;;;;;;;;;;;;;;;;;;5108841;27;1076;-76
2022/06/27 05:05:10;;;;;;;;;;;;;;;;;;5112932;27;1199;-76
2022/06/27 05:07:44;;;;;;;;;;;;;;;;;;5091132;28;2051;-76
2022/06/27 05:10:10;;;;;;;;;;;;;;;;;;5087415;28;1152;-76
2022/06/27 05:12:41;;;;;;;;;;;;;;;;;;5097630;27;1261;-75
2022/06/27 05:15:18;;;;;;;;;;;;;;;;;;5122167;27;1210;-76
2022/06/27 05:17:43;;;;;;;;;;;;;;;;;;5101503;28;1278;-76
2022/06/27 05:20:12;;;;;;;;;;;;;;;;;;5088161;28;1186;-76
2022/06/27 05:22:40;;;;;;;;;;;;;;;;;;5106439;28;1353;-76
2022/06/27 05:25:08;;;;;;;;;;;;;;;;;;5116114;27;1132;-76
2022/06/27 05:27:35;;;;;;;;;;;;;;;;;;5108763;27;1909;-75
2022/06/27 05:30:03;;;;;;;;;;;;;;;;;;5121830;27;1253;-76
2022/06/27 05:32:28;;;;;;;;;;;;;;;;;;5120717;27;1327;-76
2022/06/27 05:34:53;;;;;;;;;;;;;;;;;;5108169;27;1189;-76
2022/06/27 05:37:19;;;;;;;;;;;;;;;;;;5128077;27;1147;-76
2022/06/27 05:39:46;;;;;;;;;;;;;;;;;;5126424;27;1321;-76
2022/06/27 05:42:11;;;;;;;;;;;;;;;;;;5125276;27;1287;-76
2022/06/27 05:44:47;;;;;;;;;;;;;;;;;;5125886;27;1199;-76
2022/06/27 05:47:12;;;;;;;;;;;;;;;;;;5121583;27;1985;-76
2022/06/27 05:49:44;;;;;;;;;;;;;;;;;;5108556;27;1185;-76
2022/06/27 05:52:10;;;;;;;;;;;;;;;;;;5107249;27;1308;-76
2022/06/27 05:54:35;;;;;;;;;;;;;;;;;;5126592;27;1155;-77
2022/06/27 05:57:01;;;;;;;;;;;;;;;;;;5105632;27;1212;-77
2022/06/27 05:59:26;;;;;;;;;;;;;;;;;;5123225;27;1128;-77
2022/06/27 06:01:52;;;;;;;;;;;;;;;;;;5119396;27;1339;-77
2022/06/27 06:04:18;;;;;;;;;;;;;;;;;;5127132;27;1147;-76
2022/06/27 06:06:43;;;;;;;;;;;;;;;;;;5124529;27;1968;-77
2022/06/27 06:09:09;;;;;;;;;;;;;;;;;;5107281;28;1214;-76
2022/06/27 06:11:34;;;;;;;;;;;;;;;;;;5087475;28;1179;-77
2022/06/27 06:14:09;;;;;;;;;;;;;;;;;;5103036;28;1466;-77
2022/06/27 06:16:38;;;;;;;;;;;;;;;;;;5100095;28;1246;-77
2022/06/27 06:19:03;;;;;;;;;;;;;;;;;;5103332;28;1245;-77
2022/06/27 06:21:29;;;;;;;;;;;;;;;;;;5105006;28;1179;-77
2022/06/27 06:23:54;;;;;;;;;;;;;;;;;;5104047;27;1336;-77
2022/06/27 06:26:20;;;;;;;;;;;;;;;;;;5124889;27;1462;-77
2022/06/27 06:28:49;;;;;;;;;;;;;;;;;;5104822;27;1941;-77
2022/06/27 06:31:21;;;;;;;;;;;;;;;;;;5101094;28;1305;-77
2022/06/27 06:33:48;;;;;;;;;;;;;;;;;;5101511;28;1199;-77
2022/06/27 06:36:13;;;;;;;;;;;;;;;;;;5104973;28;1226;-77
2022/06/27 06:38:39;;;;;;;;;;;;;;;;;;5102743;28;1180;-74
2022/06/27 06:41:04;;;;;;;;;;;;;;;;;;5118834;27;1203;-74
2022/06/27 06:43:29;;;;;;;;;;;;;;;;;;5124555;27;1131;-74
2022/06/27 06:45:55;;;;;;;;;;;;;;;;;;5119880;27;1178;-75
2022/06/27 06:48:22;;;;;;;;;;;;;;;;;;5121798;27;1893;-74
2022/06/27 06:50:48;;;;;;;;;;;;;;;;;;5122312;27;1182;-76
2022/06/27 06:53:13;;;;;;;;;;;;;;;;;;5106021;27;1276;-76
2022/06/27 06:55:38;;;;;;;;;;;;;;;;;;5126455;27;1186;-75
2022/06/27 06:58:04;;;;;;;;;;;;;;;;;;5110330;27;1020;-75
2022/06/27 07:00:29;;;;;;;;;;;;;;;;;;5112898;27;1171;-75
2022/06/27 07:02:56;;;;;;;;;;;;;;;;;;5100930;28;1238;-75
2022/06/27 07:05:22;;;;;;;;;;;;;;;;;;5109149;27;1171;-75
2022/06/27 07:07:51;;;;;;;;;;;;;;;;;;5104182;28;1897;-76
2022/06/27 07:10:17;;;;;;;;;;;;;;;;;;5104626;28;1312;-75
2022/06/27 07:12:42;;;;;;;;;;;;;;;;;;5106164;28;1266;-76
2022/06/27 07:15:17;;;;;;;;;;;;;;;;;;5102608;28;1135;-76
2022/06/27 07:17:44;;;;;;;;;;;;;;;;;;5103552;28;1171;-76
2022/06/27 07:20:10;;;;;;;;;;;;;;;;;;5112520;28;1150;-75
2022/06/27 07:22:36;;;;;;;;;;;;;;;;;;5127161;28;1323;-76
2022/06/27 07:25:01;;;;;;;;;;;;;;;;;;5117167;27;1143;-76
2022/06/27 07:27:26;;;;;;;;;;;;;;;;;;5104922;28;1890;-75
2022/06/27 07:29:52;;;;;;;;;;;;;;;;;;5103708;28;1171;-75
2022/06/27 07:32:18;;;;;;;;;;;;;;;;;;5116970;28;1236;-76
2022/06/27 07:34:43;;;;;;;;;;;;;;;;;;5124508;27;1204;-75
2022/06/27 07:37:09;;;;;;;;;;;;;;;;;;5122663;27;1272;-75
2022/06/27 07:39:34;;;;;;;;;;;;;;;;;;5121157;27;1180;-76
2022/06/27 07:42:00;;;;;;;;;;;;;;;;;;5101510;28;1002;-77
2022/06/27 07:44:25;;;;;;;;;;;;;;;;;;5117238;28;1218;-76
2022/06/27 07:46:56;;;;;;;;;;;;;;;;;;5117793;28;1906;-76
2022/06/27 07:49:21;;;;;;;;;;;;;;;;;;5120819;28;1220;-77
2022/06/27 07:51:47;;;;;;;;;;;;;;;;;;5121716;28;1225;-77
2022/06/27 07:54:13;;;;;;;;;;;;;;;;;;5124317;27;1238;-77
2022/06/27 07:56:39;;;;;;;;;;;;;;;;;;5111479;27;1280;-77
2022/06/27 07:59:10;;;;;;;;;;;;;;;;;;5123568;27;1236;-77
2022/06/27 08:01:36;;;;;;;;;;;;;;;;;;5125688;27;1228;-78
2022/06/27 08:04:02;;;;;;;;;;;;;;;;;;5125863;27;908;-77
2022/06/27 08:06:29;;;;;;;;;;;;;;;;;;5129956;27;864;-77
2022/06/27 08:09:03;;;;;;;;;;;;;;;;;;5129019;27;1885;-76
2022/06/27 08:11:29;;;;;;;;;;;;;;;;;;5128232;27;1453;-76
2022/06/27 08:14:03;;;;;;;;;;;;;;;;;;5127131;27;1207;-76
2022/06/27 08:16:40;;;;;;;;;;;;;;;;;;5125938;27;1371;-77
2022/06/27 08:19:06;;;;;;;;;;;;;;;;;;5110430;27;1308;-77
2022/06/27 08:21:33;;;;;;;;;;;;;;;;;;5127871;27;1204;-76
2022/06/27 08:24:04;;;;;;;;;;;;;;;;;;5121908;27;1362;-77
2022/06/27 08:26:30;;;;;;;;;;;;;;;;;;5127802;27;1220;-76
2022/06/27 08:29:05;;;;;;;;;;;;;;;;;;5127855;27;1897;-77
2022/06/27 08:31:39;;;;;;;;;;;;;;;;;;5125483;27;1299;-77
2022/06/27 08:34:06;;;;;;;;;;;;;;;;;;5126235;27;1418;-77
2022/06/27 08:36:33;;;;;;;;;;;;;;;;;;5127116;27;1173;-77
2022/06/27 08:38:59;;;;;;;;;;;;;;;;;;5114680;27;1210;-76
2022/06/27 08:41:28;;;;;;;;;;;;;;;;;;5108521;28;1106;-77
2022/06/27 08:44:07;;;;;;;;;;;;;;;;;;5107229;28;1293;-77
2022/06/27 08:46:38;;;;;;;;;;;;;;;;;;5107565;27;1262;-76
2022/06/27 08:49:05;;;;;;;;;;;;;;;;;;5126912;27;1914;-76
2022/06/27 08:51:31;;;;;;;;;;;;;;;;;;5111287;27;1218;-76
2022/06/27 08:54:00;;;;;;;;;;;;;;;;;;5110462;27;1260;-76
2022/06/27 08:56:30;;;;;;;;;;;;;;;;;;5111262;27;1309;-77
2022/06/27 08:59:14;;;;;;;;;;;;;;;;;;5128789;27;876;-76
2022/06/27 09:01:39;;;;;;;;;;;;;;;;;;5105471;27;1463;-76
2022/06/27 09:04:06;;;;;;;;;;;;;;;;;;5108507;27;1080;-76
2022/06/27 09:06:43;;;;;;;;;;;;;;;;;;5126818;27;880;-76
2022/06/27 09:09:09;;;;;;;;;;;;;;;;;;5108112;27;1981;-76
2022/06/27 09:11:37;;;;;;;;;;;;;;;;;;5128196;27;1171;-76
2022/06/27 09:14:08;;;;;;;;;;;;;;;;;;5115418;27;1230;-76
2022/06/27 09:16:36;;;;;;;;;;;;;;;;;;5105345;27;1361;-77
2022/06/27 09:19:04;;;;;;;;;;;;;;;;;;5106275;27;1343;-76
2022/06/27 09:21:30;;;;;;;;;;;;;;;;;;5130297;27;1284;-76
2022/06/27 09:24:04;;;;;;;;;;;;;;;;;;5125079;27;1194;-76
2022/06/27 09:26:38;;;;;;;;;;;;;;;;;;5090931;27;1163;-76
2022/06/27 09:29:14;;;;;;;;;;;;;;;;;;5126984;27;1889;-76
2022/06/27 09:31:43;;;;;;;;;;;;;;;;;;5119378;27;1230;-76
2022/06/27 09:34:10;;;;;;;;;;;;;;;;;;5127253;27;1337;-76
2022/06/27 09:36:42;;;;;;;;;;;;;;;;;;5128043;27;1248;-77
2022/06/27 09:39:16;;;;;;;;;;;;;;;;;;5127505;27;1285;-76
2022/06/27 09:41:45;;;;;;;;;;;;;;;;;;5146787;27;1171;-76
2022/06/27 09:44:14;;;;;;;;;;;;;;;;;;5111130;27;1139;-76
2022/06/27 09:46:43;;;;;;;;;;;;;;;;;;5110404;27;1374;-76
2022/06/27 09:49:12;;;;;;;;;;;;;;;;;;5109502;27;1909;-76
2022/06/27 09:51:39;;;;;;;;;;;;;;;;;;5109660;27;1214;-76
2022/06/27 09:54:09;;;;;;;;;;;;;;;;;;5126541;27;1163;-76
2022/06/27 09:56:35;;;;;;;;;;;;;;;;;;5118626;27;1289;-76
2022/06/27 09:59:10;;;;;;;;;;;;;;;;;;5146860;27;1178;-76
2022/06/27 10:01:36;;;;;;;;;;;;;;;;;;5115364;27;1314;-77
2022/06/27 10:04:10;;;;;;;;;;;;;;;;;;5138403;27;1164;-76
2022/06/27 10:06:39;;;;;;;;;;;;;;;;;;5120638;27;1214;-76
2022/06/27 10:09:12;;;;;;;;;;;;;;;;;;5126256;27;1885;-76
2022/06/27 10:11:38;;;;;;;;;;;;;;;;;;5147844;27;991;-76
2022/06/27 10:14:18;;;;;;;;;;;;;;;;;;5127868;27;1221;-76
2022/06/27 10:16:52;;;;;;;;;;;;;;;;;;5143115;27;967;-76
2022/06/27 10:19:18;;;;;;;;;;;;;;;;;;5144321;27;829;-76
2022/06/27 10:21:46;;;;;;;;;;;;;;;;;;5125766;27;1214;-76
2022/06/27 10:24:26;;;;;;;;;;;;;;;;;;5131961;27;1234;-77
2022/06/27 10:26:53;;;;;;;;;;;;;;;;;;5125982;27;1950;-78
2022/06/27 10:29:27;;;;;;;;;;;;;;;;;;5123462;27;1218;-77
2022/06/27 10:31:53;;;;;;;;;;;;;;;;;;5125567;27;1201;-77
2022/06/27 10:34:25;;;;;;;;;;;;;;;;;;5144501;27;1130;-76
2022/06/27 10:37:11;;;;;;;;;;;;;;;;;;5121734;27;1221;-79
2022/06/27 10:39:36;;;;;;;;;;;;;;;;;;5125103;27;1118;-77
2022/06/27 10:42:01;;;;;;;;;;;;;;;;;;5089632;27;1286;-77
2022/06/27 10:44:28;;;;;;;;;;;;;;;;;;5086427;27;1297;-78
2022/06/27 10:46:53;;;;;;;;;;;;;;;;;;5104418;27;1902;-79
2022/06/27 10:49:19;;;;;;;;;;;;;;;;;;5124221;27;1209;-78
2022/06/27 10:51:44;;;;;;;;;;;;;;;;;;5108027;27;1257;-78
2022/06/27 10:54:13;;;;;;;;;;;;;;;;;;5105413;27;1270;-78
2022/06/27 10:56:39;;;;;;;;;;;;;;;;;;5128933;27;1207;-78
2022/06/27 10:59:14;;;;;;;;;;;;;;;;;;5125353;27;1274;-78
2022/06/27 11:01:43;;;;;;;;;;;;;;;;;;5145102;27;1130;-78
2022/06/27 11:04:23;;;;;;;;;;;;;;;;;;5128217;27;1277;-78
2022/06/27 11:06:59;;;;;;;;;;;;;;;;;;5106639;28;794;-77
2022/06/27 11:09:33;;;;;;;;;;;;;;;;;;5104807;27;1191;-76
2022/06/27 11:11:59;;;;;;;;;;;;;;;;;;5131402;27;1311;-77
2022/06/27 11:14:25;;;;;;;;;;;;;;;;;;5123408;27;1309;-76
2022/06/27 11:16:50;;;;;;;;;;;;;;;;;;5123661;27;1238;-75
2022/06/27 11:22:17;;;;;;;;;;;;;;;;;;5146151;27;1185;-75
2022/06/27 11:24:45;;;;;;;;;;;;;;;;;;5127212;27;1142;-76
2022/06/27 11:27:29;;;;;;;;;;;;;;;;;;5146180;27;1890;-76
2022/06/27 11:32:38;;;;;;;;;;;;;;;;;;5123345;27;1145;-76
2022/06/27 11:35:05;;;;;;;;;;;;;;;;;;5125463;27;1174;-76
2022/06/27 11:37:32;;;;;;;;;;;;;;;;;;5126615;27;1170;-75
2022/06/27 11:40:03;;;;;;;;;;;;;;;;;;5114475;27;1311;-75
2022/06/27 11:42:29;;;;;;;;;;;;;;;;;;5128626;27;1301;-76
2022/06/27 11:45:02;;;;;;;;;;;;;;;;;;5148135;27;1155;-75
2022/06/27 11:47:28;;;;;;;;;;;;;;;;;;5127030;27;1914;-75
2022/06/27 11:50:21;;;;;;;;;;;;;;;;;;5149831;27;1221;-75
2022/06/27 11:52:50;;;;;;;;;;;;;;;;;;5130372;27;1237;-75
2022/06/27 11:55:17;;;;;;;;;;;;;;;;;;5122007;27;1218;-74
2022/06/27 11:57:43;;;;;;;;;;;;;;;;;;5109523;27;1342;-75
2022/06/27 12:00:19;;;;;;;;;;;;;;;;;;5126384;27;1171;-74
2022/06/27 12:02:44;;;;;;;;;;;;;;;;;;5091152;27;1345;-75
2022/06/27 12:05:11;;;;;;;;;;;;;;;;;;5124503;27;1243;-74
2022/06/27 12:07:53;;;;;;;;;;;;;;;;;;5129014;27;1955;-73
2022/06/27 12:10:41;;;;;;;;;;;;;;;;;;5129641;27;1334;-75
2022/06/27 12:13:29;;;;;;;;;;;;;;;;;;5117376;27;1315;-76
2022/06/27 12:15:57;;;;;;;;;;;;;;;;;;5147071;27;1138;-76
2022/06/27 12:18:32;;;;;;;;;;;;;;;;;;5126704;27;1462;-76
2022/06/27 12:20:57;;;;;;;;;;;;;;;;;;5130855;27;1315;-75
2022/06/27 12:23:22;;;;;;;;;;;;;;;;;;5129442;27;1139;-76
2022/06/27 12:25:47;;;;;;;;;;;;;;;;;;5150210;27;1222;-76
2022/06/27 12:28:13;;;;;;;;;;;;;;;;;;5131816;27;1901;-75
2022/06/27 12:30:38;;;;;;;;;;;;;;;;;;5125745;27;1253;-76
2022/06/27 12:33:05;;;;;;;;;;;;;;;;;;5129238;27;1320;-76
2022/06/27 12:35:31;;;;;;;;;;;;;;;;;;5130327;27;1143;-77
2022/06/27 12:38:00;;;;;;;;;;;;;;;;;;5122473;27;1210;-77
2022/06/27 12:40:26;;;;;;;;;;;;;;;;;;5129702;27;1142;-75
2022/06/27 12:42:51;;;;;;;;;;;;;;;;;;5119046;27;1178;-75
2022/06/27 12:45:34;;;;;;;;;;;;;;;;;;5144015;27;1273;-76
2022/06/27 12:48:01;;;;;;;;;;;;;;;;;;5123797;27;1907;-74
2022/06/27 12:50:27;;;;;;;;;;;;;;;;;;5128315;27;1332;-74
2022/06/27 12:52:52;;;;;;;;;;;;;;;;;;5146607;27;1143;-74
2022/06/27 12:55:25;;;;;;;;;;;;;;;;;;5113841;27;1355;-74
2022/06/27 12:57:50;;;;;;;;;;;;;;;;;;5134171;27;1067;-73
2022/06/27 13:00:16;;;;;;;;;;;;;;;;;;5144161;27;1051;-73
2022/06/27 13:02:41;;;;;;;;;;;;;;;;;;5145577;27;1063;-74
2022/06/27 13:05:10;;;;;;;;;;;;;;;;;;5131716;27;1209;-74
2022/06/27 13:07:36;;;;;;;;;;;;;;;;;;5126335;27;2066;-75
2022/06/27 13:10:01;;;;;;;;;;;;;;;;;;5130298;27;1130;-75
2022/06/27 13:12:26;;;;;;;;;;;;;;;;;;5127409;27;1178;-75
2022/06/27 13:14:51;;;;;;;;;;;;;;;;;;5127982;27;1150;-75
2022/06/27 13:17:17;;;;;;;;;;;;;;;;;;5108247;27;1407;-74
2022/06/27 13:19:42;;;;;;;;;;;;;;;;;;5146473;27;1079;-76
2022/06/27 13:22:07;;;;;;;;;;;;;;;;;;5131250;27;1369;-77
2022/06/27 13:24:33;;;;;;;;;;;;;;;;;;5126209;27;1166;-77
2022/06/27 13:26:58;;;;;;;;;;;;;;;;;;5147030;27;1902;-78
2022/06/27 13:29:27;;;;;;;;;;;;;;;;;;5109689;27;1290;-78
2022/06/27 13:31:54;;;;;;;;;;;;;;;;;;5104162;27;1190;-77
2022/06/27 13:34:19;;;;;;;;;;;;;;;;;;5122893;27;1273;-78
2022/06/27 13:36:45;;;;;;;;;;;;;;;;;;5145952;27;1154;-78
2022/06/27 13:39:11;;;;;;;;;;;;;;;;;;5128821;27;1209;-78
2022/06/27 13:41:36;;;;;;;;;;;;;;;;;;5116192;27;1276;-78
2022/06/27 13:44:05;;;;;;;;;;;;;;;;;;5107894;27;1206;-78
2022/06/27 13:46:38;;;;;;;;;;;;;;;;;;5105321;27;1424;-80
2022/06/27 13:49:04;;;;;;;;;;;;;;;;;;5094829;27;1914;-81
2022/06/27 13:51:29;;;;;;;;;;;;;;;;;;5120536;27;1229;-79
2022/06/27 13:53:57;;;;;;;;;;;;;;;;;;5129827;27;1214;-82
2022/06/27 13:56:33;;;;;;;;;;;;;;;;;;5148325;27;1150;-80
2022/06/27 13:59:10;;;;;;;;;;;;;;;;;;5129650;27;1182;-80
2022/06/27 14:01:36;;;;;;;;;;;;;;;;;;5121730;27;1216;-77
2022/06/27 14:04:01;;;;;;;;;;;;;;;;;;5091511;27;1353;-81
2022/06/27 14:09:21;;;;;;;;;;;;;;;;;;5127321;27;1901;-77
2022/06/27 14:11:46;;;;;;;;;;;;;;;;;;5092734;27;1290;-74
2022/06/27 14:14:12;;;;;;;;;;;;;;;;;;5109616;27;1211;-75
2022/06/27 14:16:37;;;;;;;;;;;;;;;;;;5107109;27;1226;-76
2022/06/27 14:19:03;;;;;;;;;;;;;;;;;;5078670;27;1203;-75
2022/06/27 14:21:31;;;;;;;;;;;;;;;;;;5107388;27;1261;-76
2022/06/27 14:23:57;;;;;;;;;;;;;;;;;;5109254;27;1218;-75
2022/06/27 14:26:22;;;;;;;;;;;;;;;;;;5126523;27;1167;-75
2022/06/27 14:28:48;;;;;;;;;;;;;;;;;;5124190;27;1940;-75
2022/06/27 14:31:14;;;;;;;;;;;;;;;;;;5105067;27;1147;-75
2022/06/27 14:33:39;;;;;;;;;;;;;;;;;;5106676;27;1234;-77
2022/06/27 14:36:09;;;;;;;;;;;;;;;;;;5138898;27;1213;-76
2022/06/27 14:38:34;;;;;;;;;;;;;;;;;;5126324;27;1281;-75
2022/06/27 14:41:00;;;;;;;;;;;;;;;;;;5147570;27;1154;-75
2022/06/27 14:43:25;;;;;;;;;;;;;;;;;;5128924;27;1128;-76
2022/06/27 14:45:51;;;;;;;;;;;;;;;;;;5122686;27;1205;-77
2022/06/27 14:48:16;;;;;;;;;;;;;;;;;;5105633;27;1965;-77
2022/06/27 14:50:42;;;;;;;;;;;;;;;;;;5106272;28;1221;-79
2022/06/27 14:53:07;;;;;;;;;;;;;;;;;;5106833;28;1195;-76
2022/06/27 14:55:33;;;;;;;;;;;;;;;;;;5103999;28;1269;-76
2022/06/27 14:57:58;;;;;;;;;;;;;;;;;;5106256;28;1316;-76
2022/06/27 15:00:24;;;;;;;;;;;;;;;;;;5100755;28;1161;-77
2022/06/27 15:02:49;;;;;;;;;;;;;;;;;;5101577;28;1214;-76
2022/06/27 15:05:14;;;;;;;;;;;;;;;;;;5106032;28;1135;-77
2022/06/27 15:07:40;;;;;;;;;;;;;;;;;;5111695;27;1885;-78
2022/06/27 15:10:09;;;;;;;;;;;;;;;;;;5105290;28;1298;-79
2022/06/27 15:12:35;;;;;;;;;;;;;;;;;;5112179;27;1227;-78
2022/06/27 15:15:00;;;;;;;;;;;;;;;;;;5107969;27;1289;-80
2022/06/27 15:17:28;;;;;;;;;;;;;;;;;;5119896;27;1167;-80
2022/06/27 15:19:54;;;;;;;;;;;;;;;;;;5127357;27;1202;-82
2022/06/27 15:22:19;;;;;;;;;;;;;;;;;;5108139;28;1273;-78
2022/06/27 15:24:44;;;;;;;;;;;;;;;;;;5122604;28;1171;-78
2022/06/27 15:27:12;;;;;;;;;;;;;;;;;;5119515;28;1905;-79
2022/06/27 15:29:37;;;;;;;;;;;;;;;;;;5117192;28;1181;-79
2022/06/27 15:32:03;;;;;;;;;;;;;;;;;;5100521;28;1153;-78
2022/06/27 15:34:28;;;;;;;;;;;;;;;;;;5103605;28;1191;-78
2022/06/27 15:36:53;;;;;;;;;;;;;;;;;;5101656;28;1061;-78
2022/06/27 15:39:18;;;;;;;;;;;;;;;;;;5123433;28;1149;-78
2022/06/27 15:41:44;;;;;;;;;;;;;;;;;;5106287;28;1273;-79
2022/06/27 15:44:10;;;;;;;;;;;;;;;;;;5123850;27;1226;-78
2022/06/27 15:46:41;;;;;;;;;;;;;;;;;;5121101;27;1298;-78
2022/06/27 15:49:10;;;;;;;;;;;;;;;;;;5145869;27;1902;-78
2022/06/27 15:51:44;;;;;;;;;;;;;;;;;;5139914;27;1139;-80
2022/06/27 15:54:09;;;;;;;;;;;;;;;;;;5123741;27;1112;-80
2022/06/27 15:56:34;;;;;;;;;;;;;;;;;;5090025;27;1201;-80
2022/06/27 15:59:06;;;;;;;;;;;;;;;;;;5104693;27;1289;-81
2022/06/27 16:01:49;;;;;;;;;;;;;;;;;;5104554;27;1221;-80
2022/06/27 16:04:16;;;;;;;;;;;;;;;;;;5119507;27;1265;-79
2022/06/27 16:06:45;;;;;;;;;;;;;;;;;;5106409;27;1288;-81
2022/06/27 16:09:10;;;;;;;;;;;;;;;;;;5109327;27;1964;-79
2022/06/27 16:11:35;;;;;;;;;;;;;;;;;;5090658;27;1227;-79
2022/06/27 16:14:12;;;;;;;;;;;;;;;;;;5081332;27;1262;-79
2022/06/27 16:16:44;;;;;;;;;;;;;;;;;;5120691;27;1402;-79
2022/06/27 16:19:09;;;;;;;;;;;;;;;;;;5113522;27;1123;-81
2022/06/27 16:21:35;;;;;;;;;;;;;;;;;;5092706;27;1420;-81
2022/06/27 16:24:00;;;;;;;;;;;;;;;;;;5125966;27;1048;-78
2022/06/27 16:26:26;;;;;;;;;;;;;;;;;;5110099;27;1318;-78
2022/06/27 16:28:51;;;;;;;;;;;;;;;;;;5090526;27;1898;-78
2022/06/27 16:34:01;;;;;;;;;;;;;;;;;;5119463;27;975;-78
2022/06/27 16:36:27;;;;;;;;;;;;;;;;;;5112138;27;1213;-77
2022/06/27 16:38:52;;;;;;;;;;;;;;;;;;5121386;27;1193;-78
2022/06/27 16:41:17;;;;;;;;;;;;;;;;;;5092899;27;1185;-76
2022/06/27 16:43:45;;;;;;;;;;;;;;;;;;5087465;27;1247;-76
2022/06/27 16:46:21;;;;;;;;;;;;;;;;;;5128790;27;1163;-78
2022/06/27 16:48:46;;;;;;;;;;;;;;;;;;5128431;27;1901;-77
2022/06/27 16:51:11;;;;;;;;;;;;;;;;;;5112978;27;1182;-76
2022/06/27 16:53:39;;;;;;;;;;;;;;;;;;5112852;27;1280;-79
2022/06/27 16:56:06;;;;;;;;;;;;;;;;;;5126682;27;1311;-79
2022/06/27 16:58:31;;;;;;;;;;;;;;;;;;5127988;27;1332;-78
2022/06/27 17:00:57;;;;;;;;;;;;;;;;;;5125881;27;1470;-78
2022/06/27 17:03:22;;;;;;;;;;;;;;;;;;5089429;27;1186;-76
2022/06/27 17:05:47;;;;;;;;;;;;;;;;;;5108331;27;1250;-76
2022/06/27 17:08:13;;;;;;;;;;;;;;;;;;5097394;27;1977;-76
2022/06/27 17:10:40;;;;;;;;;;;;;;;;;;5095046;27;1294;-76
2022/06/27 17:13:09;;;;;;;;;;;;;;;;;;5127978;27;1126;-76
2022/06/27 17:15:36;;;;;;;;;;;;;;;;;;5127764;27;1147;-76
2022/06/27 17:18:02;;;;;;;;;;;;;;;;;;5123161;27;1241;-76
2022/06/27 17:20:28;;;;;;;;;;;;;;;;;;5109578;27;1277;-76
2022/06/27 17:22:53;;;;;;;;;;;;;;;;;;5106009;27;1158;-77